Time;durP1;ratioP1;P1;durP2;ratioP2;P2;SDS_P1;SDS_P2;PMS_P1;PMS_P2;Temp;Humidity;BMP_temperature;BMP_pressure;BME280_temperature;BME280_humidity;BME280_pressure;Samples;Min_cycle;Max_cycle;Signal;HPM_P1;HPM_P2
2024/01/03 00:02:00;;;;;;;1.47;0.70;;;10.00;84.10;;;;;;5023720;28;20472;-72
2024/01/03 00:04:31;;;;;;;1.97;0.80;;;10.00;83.70;;;;;;5027413;28;21049;-72
2024/01/03 00:06:57;;;;;;;1.43;0.60;;;10.00;83.80;;;;;;5026716;28;20416;-71
2024/01/03 00:09:24;;;;;;;0.70;0.50;;;10.10;83.60;;;;;;5027607;28;20423;-72
2024/01/03 00:11:50;;;;;;;1.50;0.80;;;10.10;83.00;;;;;;5029702;28;20323;-71
2024/01/03 00:14:27;;;;;;;1.40;0.60;;;10.10;83.10;;;;;;5036520;28;20435;-71
2024/01/03 00:16:54;;;;;;;1.30;0.87;;;10.10;83.00;;;;;;5036511;28;20451;-72
2024/01/03 00:19:21;;;;;;;1.00;0.80;;;10.10;83.00;;;;;;5032512;28;20428;-72
2024/01/03 00:21:46;;;;;;;1.57;0.70;;;10.00;83.00;;;;;;5030949;28;20447;-72
2024/01/03 00:24:16;;;;;;;1.67;0.70;;;10.00;82.50;;;;;;5035032;28;20469;-70
2024/01/03 00:26:41;;;;;;;1.07;0.70;;;10.00;82.20;;;;;;5032500;28;20189;-72
2024/01/03 00:29:27;;;;;;;1.20;0.90;;;10.00;82.10;;;;;;5031487;28;20561;-70
2024/01/03 00:31:53;;;;;;;1.50;0.80;;;10.00;81.20;;;;;;5021292;28;20228;-72
2024/01/03 00:34:21;;;;;;;3.03;1.00;;;10.10;80.30;;;;;;5033568;28;20786;-72
2024/01/03 00:36:48;;;;;;;2.07;0.93;;;10.00;80.20;;;;;;5033421;28;20215;-72
2024/01/03 00:39:14;;;;;;;3.53;1.03;;;10.10;79.70;;;;;;5033959;28;20416;-71
2024/01/03 00:41:40;;;;;;;1.10;0.70;;;10.20;78.10;;;;;;5031815;28;20462;-71
2024/01/03 00:44:05;;;;;;;1.40;0.90;;;10.20;77.70;;;;;;5038072;28;20467;-74
2024/01/03 00:46:31;;;;;;;1.60;1.00;;;10.30;77.00;;;;;;5039059;28;20264;-71
2024/01/03 00:48:57;;;;;;;3.03;1.13;;;10.30;77.10;;;;;;5031322;28;20255;-72
2024/01/03 00:51:23;;;;;;;1.50;0.70;;;10.40;75.90;;;;;;5024444;28;20471;-72
2024/01/03 00:53:48;;;;;;;2.10;1.10;;;10.40;75.80;;;;;;5031533;28;20193;-71
2024/01/03 00:56:14;;;;;;;2.30;1.40;;;10.50;75.50;;;;;;5031831;28;20243;-71
2024/01/03 00:58:40;;;;;;;1.30;0.80;;;10.50;75.40;;;;;;5030802;28;20288;-70
2024/01/03 01:01:06;;;;;;;1.00;0.80;;;10.60;74.90;;;;;;5028879;28;20299;-70
2024/01/03 01:03:32;;;;;;;4.30;1.30;;;10.60;74.50;;;;;;5034126;28;20475;-70
2024/01/03 01:05:58;;;;;;;1.67;0.90;;;10.60;74.80;;;;;;5035023;28;21003;-70
2024/01/03 01:08:23;;;;;;;1.93;1.20;;;10.60;75.10;;;;;;5032359;28;20184;-71
2024/01/03 01:10:49;;;;;;;3.07;1.00;;;10.60;75.50;;;;;;5028166;28;20213;-73
2024/01/03 01:13:14;;;;;;;1.60;1.20;;;10.50;75.90;;;;;;5033996;28;20590;-71
2024/01/03 01:15:40;;;;;;;2.00;1.20;;;10.40;75.90;;;;;;5032089;28;20181;-71
2024/01/03 01:18:06;;;;;;;2.17;0.80;;;10.40;76.10;;;;;;5033789;28;20193;-72
2024/01/03 01:20:31;;;;;;;3.93;1.00;;;10.30;76.50;;;;;;5029580;28;20212;-70
2024/01/03 01:22:57;;;;;;;1.70;1.03;;;10.30;76.80;;;;;;5035091;28;20189;-72
2024/01/03 01:25:22;;;;;;;2.03;1.00;;;10.30;77.10;;;;;;5034534;28;20228;-70
2024/01/03 01:27:48;;;;;;;4.03;1.43;;;10.20;77.40;;;;;;5034187;28;20576;-71
2024/01/03 01:30:13;;;;;;;1.50;0.93;;;10.20;77.80;;;;;;5028501;28;20216;-70
2024/01/03 01:32:39;;;;;;;2.40;1.10;;;10.20;78.10;;;;;;5034138;28;20204;-72
2024/01/03 01:35:05;;;;;;;3.63;1.00;;;10.10;78.30;;;;;;5034894;28;20272;-71
2024/01/03 01:37:31;;;;;;;1.60;0.93;;;10.10;78.60;;;;;;5032432;28;20235;-72
2024/01/03 01:39:56;;;;;;;2.80;0.90;;;10.10;79.00;;;;;;5030333;28;20459;-71
2024/01/03 01:42:22;;;;;;;1.67;1.00;;;10.10;79.00;;;;;;5032020;28;20230;-71
2024/01/03 01:44:48;;;;;;;2.90;1.00;;;10.10;78.70;;;;;;5031855;28;20205;-71
2024/01/03 01:47:14;;;;;;;1.47;0.90;;;10.10;78.60;;;;;;5032930;28;21030;-70
2024/01/03 01:49:40;;;;;;;3.93;1.00;;;10.10;78.70;;;;;;5030967;28;20191;-71
2024/01/03 01:52:14;;;;;;;1.90;1.00;;;10.10;79.00;;;;;;5032342;28;20411;-71
2024/01/03 01:54:41;;;;;;;2.50;1.00;;;10.10;79.20;;;;;;5032876;28;20420;-70
2024/01/03 01:57:07;;;;;;;1.90;1.20;;;10.20;79.00;;;;;;5039639;28;20416;-70
2024/01/03 01:59:34;;;;;;;3.33;1.00;;;10.20;79.00;;;;;;5031825;28;20600;-70
2024/01/03 02:02:00;;;;;;;1.37;1.00;;;10.20;79.20;;;;;;5030906;28;20614;-72
2024/01/03 02:04:27;;;;;;;1.73;0.80;;;10.10;79.70;;;;;;5031776;28;20510;-71
2024/01/03 02:06:52;;;;;;;1.63;0.83;;;10.10;79.30;;;;;;5031067;28;20423;-70
2024/01/03 02:09:18;;;;;;;2.07;1.13;;;10.10;79.30;;;;;;5030571;28;20422;-70
2024/01/03 02:11:48;;;;;;;1.13;0.80;;;10.10;79.60;;;;;;5023521;28;20201;-71
2024/01/03 02:14:14;;;;;;;2.37;1.10;;;10.00;79.50;;;;;;5031647;28;20269;-71
2024/01/03 02:16:39;;;;;;;2.10;0.80;;;10.00;79.50;;;;;;5031037;28;20507;-70
2024/01/03 02:19:05;;;;;;;2.13;0.60;;;10.00;79.60;;;;;;5030286;28;20195;-70
2024/01/03 02:21:31;;;;;;;1.80;0.80;;;9.90;79.60;;;;;;5023516;28;20283;-71
2024/01/03 02:23:56;;;;;;;1.67;0.73;;;9.90;79.30;;;;;;5036276;28;20219;-70
2024/01/03 02:26:22;;;;;;;1.20;0.67;;;9.90;79.50;;;;;;5027153;28;20494;-70
2024/01/03 02:28:48;;;;;;;1.00;0.70;;;9.90;79.20;;;;;;5030078;28;20185;-70
2024/01/03 02:31:13;;;;;;;2.93;1.10;;;9.90;79.00;;;;;;5023724;28;20688;-69
2024/01/03 02:33:39;;;;;;;1.20;0.57;;;9.90;79.00;;;;;;5029627;28;20189;-70
2024/01/03 02:36:05;;;;;;;2.57;0.80;;;9.80;78.90;;;;;;5030191;28;20215;-69
2024/01/03 02:38:30;;;;;;;0.90;0.60;;;9.80;78.90;;;;;;5030604;28;20271;-70
2024/01/03 02:40:56;;;;;;;0.63;0.50;;;9.80;78.90;;;;;;5026955;28;20558;-71
2024/01/03 02:43:21;;;;;;;1.00;0.50;;;9.80;78.70;;;;;;5033161;28;20181;-70
2024/01/03 02:45:47;;;;;;;1.10;0.50;;;9.80;78.90;;;;;;5032613;28;20212;-69
2024/01/03 02:48:13;;;;;;;0.70;0.50;;;9.80;79.00;;;;;;5031758;28;20185;-72
2024/01/03 02:50:43;;;;;;;0.60;0.50;;;9.80;79.50;;;;;;5024984;28;20208;-70
2024/01/03 02:53:09;;;;;;;1.20;0.60;;;9.70;80.50;;;;;;5033174;28;20196;-70
2024/01/03 02:55:35;;;;;;;0.97;0.70;;;9.60;82.20;;;;;;5031307;28;20452;-70
2024/01/03 02:58:01;;;;;;;1.07;0.70;;;9.30;83.10;;;;;;5030125;28;20444;-71
2024/01/03 03:00:26;;;;;;;0.60;0.50;;;9.20;83.80;;;;;;5025741;28;20608;-71
2024/01/03 03:02:52;;;;;;;3.73;0.90;;;9.20;84.30;;;;;;5029975;28;20185;-71
2024/01/03 03:05:17;;;;;;;1.20;0.67;;;9.10;84.40;;;;;;5033646;28;20266;-70
2024/01/03 03:07:43;;;;;;;1.10;0.70;;;9.10;84.90;;;;;;5035515;28;20181;-71
2024/01/03 03:10:11;;;;;;;1.10;0.63;;;9.20;85.00;;;;;;5032449;28;20205;-71
2024/01/03 03:12:37;;;;;;;0.80;0.50;;;9.20;85.00;;;;;;5035221;28;20226;-70
2024/01/03 03:15:05;;;;;;;1.57;0.93;;;9.20;85.00;;;;;;5031459;28;20467;-71
2024/01/03 03:17:30;;;;;;;1.07;0.70;;;9.20;85.20;;;;;;5029464;28;20867;-70
2024/01/03 03:19:56;;;;;;;0.67;0.60;;;9.10;85.30;;;;;;5022593;28;20488;-70
2024/01/03 03:22:21;;;;;;;1.60;0.90;;;9.10;85.50;;;;;;5025640;28;20192;-71
2024/01/03 03:24:47;;;;;;;2.40;1.10;;;9.10;85.50;;;;;;5029367;28;20217;-70
2024/01/03 03:27:13;;;;;;;2.23;0.90;;;9.10;85.70;;;;;;5029432;28;20181;-70
2024/01/03 03:29:38;;;;;;;1.63;0.80;;;9.10;85.70;;;;;;5027393;28;20298;-70
2024/01/03 03:32:04;;;;;;;1.97;0.90;;;9.10;85.70;;;;;;5023871;28;20677;-69
2024/01/03 03:34:30;;;;;;;1.13;0.80;;;9.10;85.60;;;;;;5029710;28;20185;-71
2024/01/03 03:36:55;;;;;;;2.10;0.77;;;9.20;85.50;;;;;;5029681;28;20434;-70
2024/01/03 03:39:21;;;;;;;1.80;1.20;;;9.20;85.30;;;;;;5029408;28;20189;-72
2024/01/03 03:41:47;;;;;;;2.07;1.07;;;9.20;85.20;;;;;;5022024;28;20658;-69
2024/01/03 03:44:12;;;;;;;1.80;0.80;;;9.20;85.00;;;;;;5032011;28;20208;-71
2024/01/03 03:46:39;;;;;;;2.07;1.20;;;9.30;84.90;;;;;;5033288;28;20493;-71
2024/01/03 03:49:05;;;;;;;1.50;0.70;;;9.30;84.70;;;;;;5033622;28;20568;-70
2024/01/03 03:51:31;;;;;;;0.90;0.70;;;9.30;84.60;;;;;;5028693;28;20825;-71
2024/01/03 03:53:57;;;;;;;1.20;0.87;;;9.30;84.60;;;;;;5033552;28;20439;-70
2024/01/03 03:56:24;;;;;;;2.90;0.80;;;9.40;84.40;;;;;;5033857;28;20200;-71
2024/01/03 03:58:50;;;;;;;1.53;1.00;;;9.30;84.30;;;;;;5033349;28;20420;-69
2024/01/03 04:01:16;;;;;;;1.50;1.20;;;9.40;83.70;;;;;;5028242;28;20478;-71
2024/01/03 04:03:42;;;;;;;2.27;1.00;;;9.50;83.10;;;;;;5034182;28;20539;-71
2024/01/03 04:06:07;;;;;;;1.80;1.00;;;9.50;82.80;;;;;;5033433;28;20526;-70
2024/01/03 04:08:33;;;;;;;8.60;1.00;;;9.50;82.70;;;;;;5033475;28;20284;-71
2024/01/03 04:10:58;;;;;;;1.70;1.00;;;9.50;82.20;;;;;;5030016;28;20676;-72
2024/01/03 04:13:25;;;;;;;2.33;0.97;;;9.60;81.50;;;;;;5033635;28;20185;-71
2024/01/03 04:15:51;;;;;;;3.07;0.90;;;9.60;81.40;;;;;;5033194;28;20304;-71
2024/01/03 04:18:16;;;;;;;2.67;0.93;;;9.60;80.80;;;;;;5031387;28;20548;-71
2024/01/03 04:20:42;;;;;;;7.30;1.07;;;9.60;80.20;;;;;;5028656;28;20220;-69
2024/01/03 04:23:07;;;;;;;1.33;0.90;;;9.60;80.20;;;;;;5032623;28;20721;-70
2024/01/03 04:25:33;;;;;;;2.67;1.20;;;9.60;79.90;;;;;;5032869;28;20217;-71
2024/01/03 04:27:58;;;;;;;3.20;0.93;;;9.60;79.30;;;;;;5032292;28;20540;-70
2024/01/03 04:30:24;;;;;;;1.90;0.83;;;9.60;79.00;;;;;;5025008;28;20225;-70
2024/01/03 04:32:49;;;;;;;2.70;1.10;;;9.60;79.00;;;;;;5031409;28;20222;-70
2024/01/03 04:35:15;;;;;;;2.03;0.90;;;9.60;78.70;;;;;;5032462;28;20177;-70
2024/01/03 04:37:41;;;;;;;3.17;1.07;;;9.60;78.10;;;;;;5032415;28;20654;-71
2024/01/03 04:40:08;;;;;;;3.37;0.93;;;9.60;77.70;;;;;;5028963;28;20638;-71
2024/01/03 04:42:34;;;;;;;2.07;0.90;;;9.70;77.40;;;;;;5032776;28;20181;-71
2024/01/03 04:44:59;;;;;;;3.17;1.23;;;9.80;76.70;;;;;;5032756;28;20485;-71
2024/01/03 04:47:25;;;;;;;1.50;0.90;;;9.70;76.70;;;;;;5037500;28;20189;-70
2024/01/03 04:49:52;;;;;;;3.07;1.00;;;9.80;76.20;;;;;;5029726;28;20908;-70
2024/01/03 04:52:17;;;;;;;2.70;1.00;;;9.80;76.20;;;;;;5029652;28;20193;-72
2024/01/03 04:54:43;;;;;;;4.20;1.07;;;9.70;76.40;;;;;;5031783;28;20508;-71
2024/01/03 04:57:08;;;;;;;5.60;1.40;;;9.70;76.50;;;;;;5031896;28;20235;-72
2024/01/03 04:59:35;;;;;;;3.60;1.30;;;9.60;76.80;;;;;;5030868;28;20970;-71
2024/01/03 05:02:00;;;;;;;4.77;1.30;;;9.60;76.70;;;;;;5029379;28;20239;-69
2024/01/03 05:04:26;;;;;;;4.30;1.10;;;9.70;76.20;;;;;;5031883;28;20847;-71
2024/01/03 05:06:52;;;;;;;3.73;1.20;;;9.70;75.70;;;;;;5034847;28;20208;-71
2024/01/03 05:09:17;;;;;;;6.33;1.30;;;9.70;75.80;;;;;;5031177;28;20188;-70
2024/01/03 05:11:43;;;;;;;2.40;1.13;;;9.70;76.10;;;;;;5028595;28;20263;-70
2024/01/03 05:14:08;;;;;;;4.57;1.20;;;9.60;76.40;;;;;;5033777;28;20215;-70
2024/01/03 05:16:34;;;;;;;2.83;1.10;;;9.50;76.70;;;;;;5035259;28;20232;-69
2024/01/03 05:19:00;;;;;;;1.43;0.97;;;9.60;75.90;;;;;;5032447;28;20679;-71
2024/01/03 05:21:25;;;;;;;2.10;1.10;;;9.70;75.20;;;;;;5026827;28;20536;-71
2024/01/03 05:23:51;;;;;;;2.73;1.17;;;9.60;75.80;;;;;;5031775;28;20190;-69
2024/01/03 05:26:16;;;;;;;1.80;1.20;;;9.70;75.20;;;;;;5032416;28;20185;-71
2024/01/03 05:28:42;;;;;;;5.30;1.43;;;9.70;74.50;;;;;;5032433;28;20194;-71
2024/01/03 05:31:08;;;;;;;2.90;1.30;;;9.70;74.80;;;;;;5028727;28;20209;-72
2024/01/03 05:33:33;;;;;;;4.03;1.40;;;9.70;74.60;;;;;;5032369;28;20205;-72
2024/01/03 05:35:59;;;;;;;2.17;1.00;;;9.80;73.90;;;;;;5033322;28;20272;-72
2024/01/03 05:38:24;;;;;;;1.30;0.90;;;9.80;73.90;;;;;;5034619;28;20192;-70
2024/01/03 05:40:50;;;;;;;7.33;1.30;;;9.80;74.00;;;;;;5031483;28;20255;-70
2024/01/03 05:43:16;;;;;;;4.80;1.27;;;9.80;73.90;;;;;;5034049;28;20319;-71
2024/01/03 05:45:41;;;;;;;3.40;1.50;;;9.90;73.50;;;;;;5033452;28;20220;-70
2024/01/03 05:48:07;;;;;;;4.77;1.67;;;9.90;73.50;;;;;;5035370;28;20886;-72
2024/01/03 05:50:33;;;;;;;5.13;1.13;;;10.00;73.30;;;;;;5030322;28;20217;-69
2024/01/03 05:52:58;;;;;;;6.70;1.60;;;10.00;73.30;;;;;;5033730;28;20211;-71
2024/01/03 05:55:24;;;;;;;3.33;1.20;;;10.00;73.30;;;;;;5039193;28;20185;-70
2024/01/03 05:57:50;;;;;;;4.60;1.10;;;10.00;73.30;;;;;;5039140;28;20181;-70
2024/01/03 06:00:17;;;;;;;2.00;1.20;;;10.10;72.90;;;;;;5031515;28;20251;-72
2024/01/03 06:02:43;;;;;;;2.60;1.13;;;10.10;72.90;;;;;;5033102;28;20208;-72
2024/01/03 06:05:09;;;;;;;2.00;0.87;;;10.10;73.20;;;;;;5030485;28;20982;-70
2024/01/03 06:07:35;;;;;;;3.57;1.13;;;10.10;73.20;;;;;;5030339;28;20555;-72
2024/01/03 06:10:01;;;;;;;2.37;0.80;;;10.10;73.90;;;;;;5020744;28;20478;-71
2024/01/03 06:12:26;;;;;;;10.00;1.00;;;10.10;73.50;;;;;;5031612;28;20209;-70
2024/01/03 06:14:52;;;;;;;2.27;1.20;;;10.20;73.30;;;;;;5031779;28;20326;-70
2024/01/03 06:17:17;;;;;;;7.20;1.50;;;10.20;73.60;;;;;;5031291;28;20247;-69
2024/01/03 06:19:44;;;;;;;4.60;1.67;;;10.20;73.90;;;;;;5028737;28;20193;-71
2024/01/03 06:22:10;;;;;;;1.10;0.67;;;10.20;74.30;;;;;;5029535;28;20264;-70
2024/01/03 06:24:36;;;;;;;1.90;0.93;;;10.10;74.90;;;;;;5034558;28;20541;-73
2024/01/03 06:27:01;;;;;;;2.07;1.00;;;10.10;75.20;;;;;;5031310;28;20196;-68
2024/01/03 06:29:27;;;;;;;3.70;1.10;;;10.10;75.50;;;;;;5027504;28;20185;-71
2024/01/03 06:31:52;;;;;;;1.90;1.00;;;10.00;75.70;;;;;;5025548;28;20657;-70
2024/01/03 06:34:18;;;;;;;3.67;1.03;;;10.00;75.90;;;;;;5030996;28;20181;-71
2024/01/03 06:36:43;;;;;;;1.40;0.87;;;10.00;76.20;;;;;;5031811;28;20228;-70
2024/01/03 06:39:09;;;;;;;4.20;1.40;;;9.90;76.50;;;;;;5029471;28;20292;-70
2024/01/03 06:41:34;;;;;;;5.40;1.53;;;9.90;76.70;;;;;;5026469;28;20300;-70
2024/01/03 06:44:00;;;;;;;3.37;1.40;;;9.90;77.00;;;;;;5031230;28;20188;-70
2024/01/03 06:46:27;;;;;;;2.10;0.93;;;9.90;77.10;;;;;;5035311;28;20731;-70
2024/01/03 06:48:52;;;;;;;3.80;1.20;;;9.90;77.00;;;;;;5029518;28;20181;-69
2024/01/03 06:51:21;;;;;;;3.07;1.03;;;9.90;77.00;;;;;;5026606;28;21006;-70
2024/01/03 06:53:46;;;;;;;6.87;1.30;;;9.90;77.00;;;;;;5030144;28;20295;-70
2024/01/03 06:56:12;;;;;;;4.40;1.10;;;9.90;76.70;;;;;;5029932;28;20506;-69
2024/01/03 06:58:38;;;;;;;2.03;1.17;;;9.90;77.00;;;;;;5029550;28;20276;-69
2024/01/03 07:01:03;;;;;;;5.80;1.50;;;9.90;76.70;;;;;;5026600;28;20346;-71
2024/01/03 07:03:29;;;;;;;6.53;1.07;;;9.80;76.50;;;;;;5033439;28;20185;-69
2024/01/03 07:05:54;;;;;;;4.20;1.97;;;9.80;76.50;;;;;;5028800;28;21032;-71
2024/01/03 07:08:20;;;;;;;2.20;1.27;;;9.80;76.20;;;;;;5026916;28;20181;-69
2024/01/03 07:10:45;;;;;;;3.83;1.10;;;9.90;76.20;;;;;;5022503;28;20218;-70
2024/01/03 07:13:11;;;;;;;2.93;1.07;;;9.80;76.10;;;;;;5029844;28;20284;-70
2024/01/03 07:15:37;;;;;;;3.77;1.07;;;9.70;76.10;;;;;;5029943;28;20182;-71
2024/01/03 07:18:03;;;;;;;4.17;1.20;;;9.80;75.80;;;;;;5029617;28;20224;-70
2024/01/03 07:20:30;;;;;;;2.40;1.17;;;9.80;75.90;;;;;;5025503;28;20209;-70
2024/01/03 07:22:56;;;;;;;3.43;1.10;;;9.90;75.20;;;;;;5029228;28;20419;-71
2024/01/03 07:25:21;;;;;;;5.30;1.00;;;10.00;74.60;;;;;;5029484;28;20471;-71
2024/01/03 07:27:47;;;;;;;2.17;1.23;;;10.00;74.30;;;;;;5029251;28;20259;-71
2024/01/03 07:30:13;;;;;;;2.10;1.00;;;10.10;74.30;;;;;;5025068;28;20690;-71
2024/01/03 07:32:38;;;;;;;11.17;1.63;;;10.20;73.90;;;;;;5029529;28;20204;-71
2024/01/03 07:35:05;;;;;;;3.60;1.07;;;10.30;73.50;;;;;;5030020;28;20415;-71
2024/01/03 07:37:30;;;;;;;3.97;1.23;;;10.30;73.60;;;;;;5032710;28;20191;-70
2024/01/03 07:39:56;;;;;;;2.17;1.50;;;10.30;73.20;;;;;;5026353;28;20841;-73
2024/01/03 07:42:22;;;;;;;6.13;1.30;;;10.30;73.50;;;;;;5030285;28;20193;-71
2024/01/03 07:44:47;;;;;;;2.87;1.00;;;10.40;73.20;;;;;;5037174;28;20259;-70
2024/01/03 07:47:13;;;;;;;3.40;1.20;;;10.40;73.20;;;;;;5033362;28;20186;-71
2024/01/03 07:49:39;;;;;;;3.77;1.37;;;10.30;73.50;;;;;;5027390;28;20254;-71
2024/01/03 07:52:05;;;;;;;2.47;1.27;;;10.30;73.70;;;;;;5027126;28;20924;-70
2024/01/03 07:54:31;;;;;;;5.40;1.10;;;10.30;73.90;;;;;;5034889;28;20272;-71
2024/01/03 07:56:57;;;;;;;2.43;0.97;;;10.30;74.00;;;;;;5030208;28;20503;-70
2024/01/03 07:59:23;;;;;;;2.40;0.97;;;10.30;74.30;;;;;;5031824;28;20929;-69
2024/01/03 08:01:49;;;;;;;5.90;1.50;;;10.30;74.50;;;;;;5023489;28;20463;-70
2024/01/03 08:04:16;;;;;;;2.80;1.20;;;10.30;74.60;;;;;;5034847;28;20557;-70
2024/01/03 08:06:42;;;;;;;2.13;1.10;;;10.30;74.80;;;;;;5030924;28;21116;-69
2024/01/03 08:09:08;;;;;;;7.33;1.90;;;10.30;74.90;;;;;;5031375;28;20452;-71
2024/01/03 08:11:33;;;;;;;3.13;1.10;;;10.30;74.90;;;;;;5025467;28;20459;-72
2024/01/03 08:13:59;;;;;;;4.73;1.00;;;10.40;74.90;;;;;;5042313;28;20177;-70
2024/01/03 08:16:25;;;;;;;3.73;0.90;;;10.40;74.90;;;;;;5030807;28;20775;-71
2024/01/03 08:18:50;;;;;;;2.33;0.90;;;10.40;75.20;;;;;;5028681;28;20212;-70
2024/01/03 08:21:16;;;;;;;3.10;1.10;;;10.40;74.90;;;;;;5022477;28;20216;-68
2024/01/03 08:23:44;;;;;;;3.80;1.27;;;10.40;74.90;;;;;;5028600;28;20569;-70
2024/01/03 08:26:12;;;;;;;11.67;5.37;;;10.40;74.90;;;;;;5028075;28;20319;-70
2024/01/03 08:28:40;;;;;;;3.97;1.17;;;10.50;74.90;;;;;;5028162;28;20420;-71
2024/01/03 08:31:06;;;;;;;8.33;3.70;;;10.60;74.60;;;;;;5024624;28;20592;-70
2024/01/03 08:33:36;;;;;;;5.13;1.10;;;10.70;74.20;;;;;;5031870;28;20939;-70
2024/01/03 08:36:02;;;;;;;1.93;1.20;;;10.80;74.00;;;;;;5031634;28;20932;-70
2024/01/03 08:38:28;;;;;;;2.40;1.10;;;10.80;74.20;;;;;;5039963;28;20446;-69
2024/01/03 08:40:53;;;;;;;4.10;1.77;;;10.90;73.70;;;;;;5033225;28;20452;-70
2024/01/03 08:43:19;;;;;;;2.60;1.10;;;10.90;73.70;;;;;;5027747;28;20227;-70
2024/01/03 08:45:45;;;;;;;7.13;1.20;;;10.90;74.30;;;;;;5032342;28;20217;-70
2024/01/03 08:48:10;;;;;;;4.47;1.40;;;10.90;74.80;;;;;;5037414;28;20181;-71
2024/01/03 08:50:36;;;;;;;5.87;1.20;;;10.80;75.40;;;;;;5028996;28;20201;-71
2024/01/03 08:53:01;;;;;;;2.70;1.47;;;10.70;76.80;;;;;;5040420;28;20193;-71
2024/01/03 08:55:27;;;;;;;4.00;1.07;;;10.50;77.70;;;;;;5025922;28;20733;-71
2024/01/03 08:57:56;;;;;;;5.70;1.20;;;10.40;78.10;;;;;;5034943;28;20193;-70
2024/01/03 09:00:24;;;;;;;2.43;0.83;;;10.40;78.60;;;;;;5026552;28;20233;-69
2024/01/03 09:02:50;;;;;;;2.70;2.40;;;10.40;78.60;;;;;;5033296;28;20439;-71
2024/01/03 09:05:16;;;;;;;4.33;1.43;;;10.30;78.40;;;;;;5034017;28;20573;-69
2024/01/03 09:07:45;;;;;;;4.30;1.30;;;10.40;77.80;;;;;;5030177;28;20551;-70
2024/01/03 09:10:11;;;;;;;7.43;1.47;;;10.40;78.30;;;;;;5028257;28;20202;-71
2024/01/03 09:12:36;;;;;;;5.03;1.07;;;10.50;77.10;;;;;;5032512;28;20436;-70
2024/01/03 09:15:02;;;;;;;13.10;1.83;;;10.50;77.60;;;;;;5028308;28;20482;-71
2024/01/03 09:17:28;;;;;;;1.70;0.80;;;10.60;76.50;;;;;;5028617;28;20229;-71
2024/01/03 09:19:53;;;;;;;3.27;1.17;;;10.60;76.40;;;;;;5033657;28;20732;-72
2024/01/03 09:22:19;;;;;;;5.10;1.07;;;10.60;76.40;;;;;;5029863;28;20295;-72
2024/01/03 09:24:44;;;;;;;2.73;1.10;;;10.60;75.90;;;;;;5030561;28;20213;-72
2024/01/03 09:27:10;;;;;;;2.53;1.00;;;10.60;76.10;;;;;;5030067;28;20185;-72
2024/01/03 09:29:35;;;;;;;1.97;0.90;;;10.60;76.20;;;;;;5032869;28;20184;-71
2024/01/03 09:32:02;;;;;;;1.50;0.90;;;10.60;76.40;;;;;;5025101;28;20181;-70
2024/01/03 09:34:27;;;;;;;2.30;1.10;;;10.70;76.70;;;;;;5032223;28;20286;-71
2024/01/03 09:36:53;;;;;;;4.83;1.00;;;10.70;76.80;;;;;;5030294;28;20503;-70
2024/01/03 09:39:19;;;;;;;4.10;1.17;;;10.60;76.70;;;;;;5029674;28;20220;-71
2024/01/03 09:41:46;;;;;;;1.80;0.90;;;10.70;76.50;;;;;;5021886;28;20484;-69
2024/01/03 09:44:12;;;;;;;1.40;1.10;;;10.70;76.40;;;;;;5029744;28;20185;-71
2024/01/03 09:46:38;;;;;;;1.37;0.70;;;10.80;75.50;;;;;;5030688;28;20424;-72
2024/01/03 09:49:04;;;;;;;1.20;0.80;;;10.80;76.20;;;;;;5029551;28;20482;-69
2024/01/03 09:51:30;;;;;;;5.63;2.07;;;10.70;76.50;;;;;;5024184;28;21021;-71
2024/01/03 09:53:56;;;;;;;2.13;1.10;;;10.70;77.00;;;;;;5029297;28;20188;-69
2024/01/03 09:56:22;;;;;;;2.00;0.90;;;10.60;77.00;;;;;;5031569;28;20995;-70
2024/01/03 09:58:48;;;;;;;1.00;0.87;;;10.60;77.60;;;;;;5031567;28;20420;-71
2024/01/03 10:01:14;;;;;;;1.93;1.00;;;10.60;77.60;;;;;;5027532;28;20673;-70
2024/01/03 10:03:39;;;;;;;1.50;0.90;;;10.70;77.80;;;;;;5030508;28;20181;-69
2024/01/03 10:06:15;;;;;;;2.30;0.97;;;10.70;77.40;;;;;;5031032;28;20208;-70
2024/01/03 10:08:41;;;;;;;1.90;1.10;;;10.70;76.80;;;;;;5029375;28;20661;-71
2024/01/03 10:11:22;;;;;;;1.60;1.00;;;10.70;77.70;;;;;;5025878;28;20455;-71
2024/01/03 10:13:53;;;;;;;3.27;1.07;;;10.60;78.70;;;;;;5031802;28;20428;-70
2024/01/03 10:16:26;;;;;;;3.50;2.10;;;10.50;78.30;;;;;;5032584;28;20447;-71
2024/01/03 10:19:13;;;;;;;5.10;1.03;;;10.40;78.90;;;;;;5028126;28;20838;-71
2024/01/03 10:21:49;;;;;;;1.97;1.17;;;10.40;79.60;;;;;;5025852;28;20467;-71
2024/01/03 10:24:20;;;;;;;3.47;1.63;;;10.20;80.60;;;;;;5030442;28;20478;-71
2024/01/03 10:26:46;;;;;;;4.63;0.87;;;10.20;81.20;;;;;;5030178;28;20439;-70
2024/01/03 10:29:17;;;;;;;2.43;1.07;;;10.20;80.30;;;;;;5028088;28;20460;-71
2024/01/03 10:31:43;;;;;;;3.30;1.17;;;10.30;80.20;;;;;;5025102;28;20550;-70
2024/01/03 10:34:15;;;;;;;1.77;1.10;;;10.30;80.00;;;;;;5031295;28;20539;-71
2024/01/03 10:36:45;;;;;;;3.80;1.07;;;10.40;79.50;;;;;;5032252;28;20730;-71
2024/01/03 10:39:15;;;;;;;2.50;1.00;;;10.40;79.00;;;;;;5029656;28;20502;-71
2024/01/03 10:41:47;;;;;;;4.33;0.83;;;10.40;78.90;;;;;;5027823;28;20455;-71
2024/01/03 10:44:14;;;;;;;1.07;0.63;;;10.50;78.70;;;;;;5031591;28;20844;-72
2024/01/03 10:46:44;;;;;;;5.30;1.10;;;10.50;78.30;;;;;;5029232;28;20419;-70
2024/01/03 10:49:13;;;;;;;1.33;0.83;;;10.50;78.10;;;;;;5031612;28;20428;-71
2024/01/03 10:51:43;;;;;;;2.70;0.80;;;10.60;77.60;;;;;;5026229;28;20475;-70
2024/01/03 10:54:16;;;;;;;4.30;1.47;;;10.60;77.00;;;;;;5027498;28;21039;-70
2024/01/03 10:56:47;;;;;;;2.47;1.30;;;10.70;77.10;;;;;;5027644;28;20458;-70
2024/01/03 10:59:13;;;;;;;3.57;1.80;;;10.80;76.50;;;;;;5027877;28;20453;-70
2024/01/03 11:02:05;;;;;;;4.20;1.27;;;10.90;76.70;;;;;;5025565;28;20501;-71
2024/01/03 11:05:29;;;;;;;5.73;1.00;;;10.90;76.40;;;;;;5027314;28;20554;-73
2024/01/03 11:08:04;;;;;;;1.57;0.80;;;11.00;76.10;;;;;;4997429;28;21274;-71
2024/01/03 11:10:50;;;;;;;2.70;1.00;;;11.10;75.50;;;;;;4997474;28;20472;-69
2024/01/03 11:13:32;;;;;;;3.43;0.97;;;11.10;75.50;;;;;;5001081;28;20440;-70
2024/01/03 11:16:00;;;;;;;1.80;1.00;;;11.20;74.80;;;;;;5004348;28;20425;-69
2024/01/03 11:18:41;;;;;;;1.60;0.97;;;11.20;74.80;;;;;;4999700;28;20485;-70
2024/01/03 11:21:28;;;;;;;1.20;0.80;;;11.20;74.50;;;;;;4998666;28;20467;-71
2024/01/03 11:23:54;;;;;;;3.90;1.23;;;11.30;74.20;;;;;;5003647;28;20496;-71
2024/01/03 11:26:40;;;;;;;2.97;1.10;;;11.40;73.60;;;;;;5005331;28;21038;-71
2024/01/03 11:29:05;;;;;;;1.93;0.90;;;11.50;73.60;;;;;;5002633;28;20186;-70
2024/01/03 11:31:58;;;;;;;2.60;1.10;;;11.40;74.00;;;;;;4999940;28;20460;-70
2024/01/03 11:34:42;;;;;;;3.63;1.20;;;11.40;74.00;;;;;;5002391;28;20221;-71
2024/01/03 11:37:16;;;;;;;1.57;0.80;;;11.40;74.30;;;;;;5003660;28;20425;-72
2024/01/03 11:39:45;;;;;;;1.33;0.80;;;11.30;74.00;;;;;;5000384;28;20759;-71
2024/01/03 11:42:18;;;;;;;2.80;1.20;;;11.20;74.00;;;;;;5020615;28;20420;-72
2024/01/03 11:44:44;;;;;;;2.43;0.83;;;11.30;73.60;;;;;;5028335;28;20502;-71
2024/01/03 11:47:11;;;;;;;1.97;1.23;;;11.30;72.70;;;;;;5030341;28;20917;-72
2024/01/03 11:49:37;;;;;;;1.93;0.93;;;11.40;72.90;;;;;;5030612;28;20181;-72
2024/01/03 11:52:03;;;;;;;4.33;1.47;;;11.40;72.70;;;;;;5031303;28;20439;-71
2024/01/03 11:54:31;;;;;;;2.00;0.93;;;11.40;72.60;;;;;;5029981;28;20430;-70
2024/01/03 11:56:58;;;;;;;1.10;0.73;;;11.40;72.30;;;;;;5028277;28;21243;-70
2024/01/03 11:59:24;;;;;;;4.43;1.10;;;11.50;72.00;;;;;;5023476;28;20444;-70
2024/01/03 12:01:57;;;;;;;2.70;1.33;;;11.50;72.00;;;;;;5029871;28;20464;-71
2024/01/03 12:04:24;;;;;;;3.37;1.37;;;11.60;71.70;;;;;;5031428;28;21034;-70
2024/01/03 12:06:50;;;;;;;2.10;1.03;;;11.60;71.30;;;;;;5033340;28;20432;-70
2024/01/03 12:09:16;;;;;;;1.30;0.93;;;11.60;71.00;;;;;;5030079;28;20431;-69
2024/01/03 12:11:42;;;;;;;1.10;0.63;;;11.60;71.00;;;;;;5026748;28;20485;-71
2024/01/03 12:14:08;;;;;;;2.60;1.20;;;11.60;71.00;;;;;;5031310;28;20431;-72
2024/01/03 12:16:54;;;;;;;2.70;1.20;;;11.70;71.40;;;;;;5029433;28;20448;-73
2024/01/03 12:19:23;;;;;;;3.00;1.10;;;11.80;71.00;;;;;;5029927;28;20197;-70
2024/01/03 12:22:02;;;;;;;2.17;1.10;;;11.80;71.00;;;;;;5027725;28;20976;-71
2024/01/03 12:24:38;;;;;;;2.00;1.03;;;11.70;72.00;;;;;;5030134;28;20471;-71
2024/01/03 12:27:05;;;;;;;5.07;1.00;;;11.50;72.90;;;;;;5032830;28;20439;-72
2024/01/03 12:29:32;;;;;;;1.07;0.70;;;11.40;73.20;;;;;;5031109;28;20428;-71
2024/01/03 12:32:11;;;;;;;1.80;0.90;;;11.30;73.30;;;;;;5028528;28;20459;-72
2024/01/03 12:34:37;;;;;;;4.60;1.40;;;11.10;74.50;;;;;;5035560;28;20428;-70
2024/01/03 12:37:02;;;;;;;1.80;0.90;;;11.10;74.30;;;;;;5030095;28;20993;-72
2024/01/03 12:39:36;;;;;;;4.07;1.20;;;11.10;74.30;;;;;;5031178;28;20223;-71
2024/01/03 12:42:07;;;;;;;1.90;0.80;;;11.10;74.50;;;;;;5031997;28;20185;-70
2024/01/03 12:44:33;;;;;;;0.80;0.60;;;11.10;74.60;;;;;;5038288;28;20467;-71
2024/01/03 12:46:58;;;;;;;3.53;1.00;;;11.10;74.50;;;;;;5037712;28;20562;-70
2024/01/03 12:49:24;;;;;;;2.03;0.73;;;11.20;73.70;;;;;;5037853;28;20285;-70
2024/01/03 12:51:51;;;;;;;2.80;0.93;;;11.20;73.90;;;;;;5035322;28;20458;-70